ZUUU METAR and TAF | Updated Today

ZUUU METAR

Chengdu Shuangliu International Airport

Observation time: 48 min. ago

ZUUU 252000Z 24002MPS 9999 FEW050 21/19 Q1009 NOSIG

Need help? Read our tutorial on how to read METARs or read the parsed version below.

Chengdu Shuangliu International Airport (ZUUU) METAR

  • Weather conditions on Wed, 25 May 2022 20:00:00 +0000 (48 min. ago):
  • Present conditions: Dry
  • Clouds: A few at 1524 meters
  • Visibility: Greater than 10 km
  • Wind: 240 degrees at 2 knots
  • Temperature: 21 celsius
  • Dew point: 19 celsius
  • Pressure: 1009 millibars
  • Remarks: None


Useful to know...

ZUUU TAF

Chengdu Shuangliu International Airport

TAF ZUUU 251505Z 2518/2618 33003MPS 6000 SCT040 TX26/2607Z TN20/2522Z TEMPO 2518/2522 -SHRA
Observation time: 5:43 hr. ago
Need help? Read our tutorial on how to read TAFs or read the parsed version below.

Parsed version of TAF for Chengdu Shuangliu International Airport (ZUUU)

  • From 25 May at 18:00 UTC, to day 26 of the month at 18:00 UTC
  • Clouds: Scattered at 1219 meters
  • Visibility: 6000 meters
  • Wind: 330 degrees at 3
  • Expected to arise temporarily, from 25 May at 18:00 UTC, to day 25 of the month at 22:00 UTC
  • Other: Light showers of rain

Airports near ZUUU